This is the latest recevied weather packets stored in our database for station/object XE3JAR-13. If no packets are shown the sender has not sent any weather packets the latest 1 day(s).
| Time | Temp. | Humidity | Pressure | Rain* | Wind** | Luminosity | Snow |
|---|---|---|---|---|---|---|---|
| 1778076761 | 32.78° C | 75% | 1015.2 hPa | - | - | - | - |
| 1778075851 | 32.78° C | 77% | 1015.2 hPa | - | - | - | - |
| 1778075548 | 32.22° C | 79% | 1014.9 hPa | - | - | - | - |
| 1778075245 | 32.22° C | 78% | 1014.9 hPa | - | - | - | - |
| 1778074041 | 31.11° C | 83% | 1015.2 hPa | - | - | - | - |
| 1778072381 | 28.89° C | 91% | 1015.2 hPa | - | - | - | - |
| 1778071158 | 27.78° C | 96% | 1014.9 hPa | - | - | - | - |
| 1778068121 | 27.78° C | 99% | 1014.6 hPa | - | - | - | - |
| 1778066649 | 27.22° C | 99% | 1014.6 hPa | - | - | - | - |
| 1778066037 | 27.78° C | 99% | 1014.6 hPa | - | - | - | - |
| 1778061874 | 27.78° C | 97% | 1014.2 hPa | - | - | - | - |
| 1778057659 | 28.89° C | 94% | 1013.6 hPa | - | - | - | - |
| 1778057350 | 28.89° C | 94% | 1013.6 hPa | - | - | - | - |
| 1778057044 | 28.89° C | 94% | 1013.6 hPa | - | - | - | - |
| 1778056739 | 28.89° C | 93% | 1013.6 hPa | - | - | - | - |
| 1778056435 | 28.89° C | 93% | 1013.6 hPa | - | - | - | - |
| 1778056133 | 28.89° C | 93% | 1013.6 hPa | - | - | - | - |
| 1778055824 | 28.89° C | 93% | 1013.6 hPa | - | - | - | - |
| 1778055518 | 28.89° C | 94% | 1013.9 hPa | - | - | - | - |
| 1778055210 | 28.89° C | 94% | 1013.9 hPa | - | - | - | - |
| 1778054905 | 28.89° C | 94% | 1013.9 hPa | - | - | - | - |
| 1778054603 | 28.89° C | 94% | 1013.9 hPa | - | - | - | - |
| 1778053695 | 28.89° C | 94% | 1013.9 hPa | - | - | - | - |
| 1778053396 | 28.89° C | 94% | 1013.9 hPa | - | - | - | - |
| 1778053097 | 28.89° C | 94% | 1013.9 hPa | - | - | - | - |
* Rain since midnight (hover to see other rain measurements)
** Current wind speed in m/s (hover to see current wind gust speed)